Tortugas, New Mexico
Current Conditions -  °F | °C
As of 11:55 PM on Thursday 27 Nov 2014 (Local Time) from KLRU Reporting Station
Clear Clear  
Wind Chill: 42°   Ceiling: Unl
Heat Index: 42°   Visibility: 10mi
Dew Point: 21°   Wind: 0mph
Humidity: 44%   Direction: NA
Pressure: 30.31"   Gusts: NA
Location:  32.6621°N, 106.641°W
Report Text: KLRU 280655Z AUTO 00000KT 10SM CLR 05/M06 A3031 RMK AO2 T00541061 PWINO
Loading
Personal Weather Stations






























Interactive Weather Map New forecast layout! Learn more

10-Day Weather Forecast

Advertisements
Track Severe Weather on mobile